sensor_id;sensor_type;location;lat;lon;timestamp;pressure;altitude;pressure_sealevel;temperature;humidity
37610;BME280;23457;51.966;8.230;2023-11-18T00:00:55;101793.91;;;4.34;100.00
37610;BME280;23457;51.966;8.230;2023-11-18T00:03:22;101792.94;;;4.32;100.00
37610;BME280;23457;51.966;8.230;2023-11-18T00:05:49;101786.84;;;4.30;100.00
37610;BME280;23457;51.966;8.230;2023-11-18T00:08:16;101797.13;;;4.15;100.00
37610;BME280;23457;51.966;8.230;2023-11-18T00:10:42;101799.84;;;4.18;100.00
37610;BME280;23457;51.966;8.230;2023-11-18T00:13:09;101800.13;;;4.23;100.00
37610;BME280;23457;51.966;8.230;2023-11-18T00:15:36;101800.31;;;4.41;100.00
37610;BME280;23457;51.966;8.230;2023-11-18T00:18:03;101803.78;;;4.41;100.00
37610;BME280;23457;51.966;8.230;2023-11-18T00:20:30;101805.97;;;4.35;100.00
37610;BME280;23457;51.966;8.230;2023-11-18T00:22:58;101807.22;;;4.27;100.00
37610;BME280;23457;51.966;8.230;2023-11-18T00:25:24;101805.97;;;4.20;100.00
37610;BME280;23457;51.966;8.230;2023-11-18T00:27:51;101807.66;;;4.20;100.00
37610;BME280;23457;51.966;8.230;2023-11-18T00:30:18;101807.31;;;4.14;100.00
37610;BME280;23457;51.966;8.230;2023-11-18T00:32:45;101800.38;;;4.13;100.00
37610;BME280;23457;51.966;8.230;2023-11-18T00:35:12;101802.16;;;4.14;100.00
37610;BME280;23457;51.966;8.230;2023-11-18T00:37:38;101800.00;;;4.07;100.00
37610;BME280;23457;51.966;8.230;2023-11-18T00:40:07;101795.06;;;4.10;100.00
37610;BME280;23457;51.966;8.230;2023-11-18T00:42:35;101797.09;;;4.01;100.00
37610;BME280;23457;51.966;8.230;2023-11-18T00:45:02;101795.91;;;3.95;100.00
37610;BME280;23457;51.966;8.230;2023-11-18T00:47:30;101798.59;;;3.97;100.00
37610;BME280;23457;51.966;8.230;2023-11-18T00:49:57;101800.81;;;4.06;100.00
37610;BME280;23457;51.966;8.230;2023-11-18T00:52:25;101804.97;;;4.18;100.00
37610;BME280;23457;51.966;8.230;2023-11-18T00:54:52;101797.91;;;4.14;100.00
37610;BME280;23457;51.966;8.230;2023-11-18T00:57:18;101803.66;;;4.10;100.00
37610;BME280;23457;51.966;8.230;2023-11-18T00:59:45;101803.03;;;4.00;100.00
37610;BME280;23457;51.966;8.230;2023-11-18T01:02:12;101809.56;;;3.94;100.00
37610;BME280;23457;51.966;8.230;2023-11-18T01:04:40;101805.78;;;4.03;100.00
37610;BME280;23457;51.966;8.230;2023-11-18T01:07:07;101808.38;;;4.03;100.00
37610;BME280;23457;51.966;8.230;2023-11-18T01:09:35;101803.66;;;3.68;100.00
37610;BME280;23457;51.966;8.230;2023-11-18T01:12:05;101801.38;;;3.72;100.00
37610;BME280;23457;51.966;8.230;2023-11-18T01:14:37;101804.31;;;3.78;100.00
37610;BME280;23457;51.966;8.230;2023-11-18T01:17:06;101809.75;;;3.97;100.00
37610;BME280;23457;51.966;8.230;2023-11-18T01:19:32;101809.41;;;3.91;100.00
37610;BME280;23457;51.966;8.230;2023-11-18T01:22:00;101813.78;;;3.65;100.00
37610;BME280;23457;51.966;8.230;2023-11-18T01:24:27;101807.78;;;3.79;100.00
37610;BME280;23457;51.966;8.230;2023-11-18T01:26:54;101811.69;;;3.87;100.00
37610;BME280;23457;51.966;8.230;2023-11-18T01:29:21;101816.59;;;3.69;100.00
37610;BME280;23457;51.966;8.230;2023-11-18T01:31:48;101818.28;;;3.96;100.00
37610;BME280;23457;51.966;8.230;2023-11-18T01:34:19;101820.25;;;4.01;100.00
37610;BME280;23457;51.966;8.230;2023-11-18T01:36:49;101822.13;;;4.03;100.00
37610;BME280;23457;51.966;8.230;2023-11-18T01:39:17;101823.78;;;4.03;100.00
37610;BME280;23457;51.966;8.230;2023-11-18T01:41:45;101831.81;;;3.94;100.00
37610;BME280;23457;51.966;8.230;2023-11-18T01:44:12;101823.72;;;3.73;100.00
37610;BME280;23457;51.966;8.230;2023-11-18T01:46:42;101830.44;;;3.71;100.00
37610;BME280;23457;51.966;8.230;2023-11-18T01:49:13;101833.69;;;3.96;100.00
37610;BME280;23457;51.966;8.230;2023-11-18T01:51:42;101834.66;;;3.84;100.00
37610;BME280;23457;51.966;8.230;2023-11-18T01:54:12;101835.47;;;3.97;100.00
37610;BME280;23457;51.966;8.230;2023-11-18T01:56:47;101834.69;;;3.99;100.00
37610;BME280;23457;51.966;8.230;2023-11-18T01:59:15;101840.22;;;4.05;100.00
37610;BME280;23457;51.966;8.230;2023-11-18T02:01:52;101836.72;;;3.89;100.00
37610;BME280;23457;51.966;8.230;2023-11-18T02:04:20;101837.75;;;3.78;100.00
37610;BME280;23457;51.966;8.230;2023-11-18T02:06:49;101838.31;;;3.87;100.00
37610;BME280;23457;51.966;8.230;2023-11-18T02:09:17;101837.50;;;3.60;100.00
37610;BME280;23457;51.966;8.230;2023-11-18T02:14:20;101835.72;;;3.59;100.00
37610;BME280;23457;51.966;8.230;2023-11-18T02:16:49;101828.50;;;3.67;100.00
37610;BME280;23457;51.966;8.230;2023-11-18T02:19:20;101825.22;;;3.42;100.00
37610;BME280;23457;51.966;8.230;2023-11-18T02:21:49;101822.81;;;3.45;100.00
37610;BME280;23457;51.966;8.230;2023-11-18T02:24:29;101815.16;;;3.59;100.00
37610;BME280;23457;51.966;8.230;2023-11-18T02:26:58;101829.38;;;3.40;100.00
37610;BME280;23457;51.966;8.230;2023-11-18T02:29:28;101821.81;;;3.43;100.00
37610;BME280;23457;51.966;8.230;2023-11-18T02:32:08;101819.00;;;3.66;100.00
37610;BME280;23457;51.966;8.230;2023-11-18T02:34:40;101822.13;;;3.75;100.00
37610;BME280;23457;51.966;8.230;2023-11-18T02:37:10;101817.28;;;3.52;100.00
37610;BME280;23457;51.966;8.230;2023-11-18T02:39:40;101810.56;;;3.54;100.00
37610;BME280;23457;51.966;8.230;2023-11-18T02:42:10;101816.19;;;3.48;100.00
37610;BME280;23457;51.966;8.230;2023-11-18T02:44:38;101808.44;;;3.62;100.00
37610;BME280;23457;51.966;8.230;2023-11-18T02:47:06;101811.44;;;3.54;100.00
37610;BME280;23457;51.966;8.230;2023-11-18T02:49:36;101815.69;;;3.54;100.00
37610;BME280;23457;51.966;8.230;2023-11-18T02:52:03;101807.75;;;3.64;100.00
37610;BME280;23457;51.966;8.230;2023-11-18T02:54:30;101808.78;;;3.68;100.00
37610;BME280;23457;51.966;8.230;2023-11-18T02:56:58;101812.50;;;3.58;100.00
37610;BME280;23457;51.966;8.230;2023-11-18T02:59:26;101810.66;;;3.70;100.00
37610;BME280;23457;51.966;8.230;2023-11-18T03:01:55;101818.56;;;3.73;100.00
37610;BME280;23457;51.966;8.230;2023-11-18T03:04:22;101817.00;;;3.75;100.00
37610;BME280;23457;51.966;8.230;2023-11-18T03:06:50;101821.75;;;3.69;100.00
37610;BME280;23457;51.966;8.230;2023-11-18T03:09:17;101820.84;;;3.54;100.00
37610;BME280;23457;51.966;8.230;2023-11-18T03:11:45;101822.41;;;3.52;100.00
37610;BME280;23457;51.966;8.230;2023-11-18T03:14:12;101809.13;;;3.59;100.00
37610;BME280;23457;51.966;8.230;2023-11-18T03:16:39;101806.00;;;3.50;100.00
37610;BME280;23457;51.966;8.230;2023-11-18T03:19:06;101809.31;;;3.34;100.00
37610;BME280;23457;51.966;8.230;2023-11-18T03:21:35;101801.69;;;3.36;100.00
37610;BME280;23457;51.966;8.230;2023-11-18T03:24:02;101792.66;;;3.14;100.00
37610;BME280;23457;51.966;8.230;2023-11-18T03:26:29;101793.41;;;3.27;100.00
37610;BME280;23457;51.966;8.230;2023-11-18T03:28:58;101789.47;;;3.18;100.00
37610;BME280;23457;51.966;8.230;2023-11-18T03:31:25;101789.13;;;3.40;100.00
37610;BME280;23457;51.966;8.230;2023-11-18T03:33:52;101789.94;;;3.39;100.00
37610;BME280;23457;51.966;8.230;2023-11-18T03:36:19;101784.63;;;3.23;100.00
37610;BME280;23457;51.966;8.230;2023-11-18T03:38:46;101777.31;;;3.29;100.00
37610;BME280;23457;51.966;8.230;2023-11-18T03:41:15;101774.94;;;3.19;100.00
37610;BME280;23457;51.966;8.230;2023-11-18T03:43:41;101781.16;;;3.22;100.00
37610;BME280;23457;51.966;8.230;2023-11-18T03:46:08;101774.53;;;3.26;100.00
37610;BME280;23457;51.966;8.230;2023-11-18T03:48:35;101765.00;;;3.10;100.00
37610;BME280;23457;51.966;8.230;2023-11-18T03:51:02;101771.94;;;2.98;100.00
37610;BME280;23457;51.966;8.230;2023-11-18T03:53:29;101764.56;;;3.17;100.00
37610;BME280;23457;51.966;8.230;2023-11-18T03:55:57;101766.16;;;3.29;100.00
37610;BME280;23457;51.966;8.230;2023-11-18T03:58:24;101765.59;;;2.93;100.00
37610;BME280;23457;51.966;8.230;2023-11-18T04:00:50;101764.13;;;2.83;100.00
37610;BME280;23457;51.966;8.230;2023-11-18T04:03:17;101761.56;;;2.83;100.00
37610;BME280;23457;51.966;8.230;2023-11-18T04:05:44;101766.22;;;3.02;100.00
37610;BME280;23457;51.966;8.230;2023-11-18T04:08:11;101763.13;;;3.08;100.00
37610;BME280;23457;51.966;8.230;2023-11-18T04:10:38;101767.78;;;3.00;100.00
37610;BME280;23457;51.966;8.230;2023-11-18T04:13:05;101767.97;;;3.03;100.00
37610;BME280;23457;51.966;8.230;2023-11-18T04:15:32;101761.56;;;2.97;100.00
37610;BME280;23457;51.966;8.230;2023-11-18T04:17:59;101764.13;;;2.83;100.00
37610;BME280;23457;51.966;8.230;2023-11-18T04:20:26;101758.91;;;2.82;100.00
37610;BME280;23457;51.966;8.230;2023-11-18T04:22:53;101753.97;;;2.72;100.00
37610;BME280;23457;51.966;8.230;2023-11-18T04:25:20;101761.78;;;2.60;100.00
37610;BME280;23457;51.966;8.230;2023-11-18T04:27:47;101762.16;;;2.93;100.00
37610;BME280;23457;51.966;8.230;2023-11-18T04:30:14;101765.22;;;3.00;100.00
37610;BME280;23457;51.966;8.230;2023-11-18T04:32:41;101749.41;;;2.94;100.00
37610;BME280;23457;51.966;8.230;2023-11-18T04:35:10;101752.19;;;2.97;100.00
37610;BME280;23457;51.966;8.230;2023-11-18T04:37:39;101753.78;;;2.69;100.00
37610;BME280;23457;51.966;8.230;2023-11-18T04:40:10;101756.34;;;2.69;100.00
37610;BME280;23457;51.966;8.230;2023-11-18T04:42:39;101754.19;;;2.75;100.00
37610;BME280;23457;51.966;8.230;2023-11-18T04:45:06;101758.34;;;2.60;100.00
37610;BME280;23457;51.966;8.230;2023-11-18T04:47:36;101750.31;;;2.81;100.00
37610;BME280;23457;51.966;8.230;2023-11-18T04:50:04;101739.16;;;2.68;100.00
37610;BME280;23457;51.966;8.230;2023-11-18T04:52:31;101741.72;;;2.68;100.00
37610;BME280;23457;51.966;8.230;2023-11-18T04:55:02;101746.06;;;2.82;100.00
37610;BME280;23457;51.966;8.230;2023-11-18T04:57:29;101740.81;;;2.94;100.00
37610;BME280;23457;51.966;8.230;2023-11-18T04:59:56;101738.78;;;2.75;100.00
37610;BME280;23457;51.966;8.230;2023-11-18T05:02:23;101733.13;;;2.80;100.00
37610;BME280;23457;51.966;8.230;2023-11-18T05:04:50;101734.44;;;2.61;100.00
37610;BME280;23457;51.966;8.230;2023-11-18T05:07:16;101731.97;;;2.75;100.00
37610;BME280;23457;51.966;8.230;2023-11-18T05:09:44;101727.06;;;2.65;100.00
37610;BME280;23457;51.966;8.230;2023-11-18T05:12:10;101724.75;;;2.57;100.00
37610;BME280;23457;51.966;8.230;2023-11-18T05:14:37;101723.19;;;2.45;100.00
37610;BME280;23457;51.966;8.230;2023-11-18T05:17:05;101720.94;;;2.50;100.00
37610;BME280;23457;51.966;8.230;2023-11-18T05:19:31;101726.34;;;2.41;100.00
37610;BME280;23457;51.966;8.230;2023-11-18T05:21:58;101715.19;;;2.54;100.00
37610;BME280;23457;51.966;8.230;2023-11-18T05:24:26;101700.09;;;2.32;100.00
37610;BME280;23457;51.966;8.230;2023-11-18T05:26:53;101695.66;;;2.43;100.00
37610;BME280;23457;51.966;8.230;2023-11-18T05:29:20;101705.13;;;2.44;100.00
37610;BME280;23457;51.966;8.230;2023-11-18T05:31:47;101708.31;;;2.27;100.00
37610;BME280;23457;51.966;8.230;2023-11-18T05:34:14;101700.63;;;2.40;100.00
37610;BME280;23457;51.966;8.230;2023-11-18T05:36:41;101707.00;;;2.46;100.00
37610;BME280;23457;51.966;8.230;2023-11-18T05:39:08;101700.78;;;2.43;100.00
37610;BME280;23457;51.966;8.230;2023-11-18T05:41:37;101701.50;;;2.27;100.00
37610;BME280;23457;51.966;8.230;2023-11-18T05:44:07;101684.34;;;2.26;100.00
37610;BME280;23457;51.966;8.230;2023-11-18T05:46:43;101690.81;;;1.95;100.00
37610;BME280;23457;51.966;8.230;2023-11-18T05:49:13;101687.38;;;2.07;100.00
37610;BME280;23457;51.966;8.230;2023-11-18T05:51:40;101689.63;;;2.29;100.00
37610;BME280;23457;51.966;8.230;2023-11-18T05:54:10;101691.81;;;2.23;100.00
37610;BME280;23457;51.966;8.230;2023-11-18T05:56:37;101687.28;;;2.32;100.00
37610;BME280;23457;51.966;8.230;2023-11-18T05:59:03;101686.28;;;2.30;100.00
37610;BME280;23457;51.966;8.230;2023-11-18T06:01:30;101685.41;;;2.30;100.00
37610;BME280;23457;51.966;8.230;2023-11-18T06:03:58;101696.06;;;2.36;100.00
37610;BME280;23457;51.966;8.230;2023-11-18T06:06:26;101696.16;;;2.24;100.00
37610;BME280;23457;51.966;8.230;2023-11-18T06:08:53;101696.66;;;2.19;100.00
37610;BME280;23457;51.966;8.230;2023-11-18T06:11:20;101686.19;;;2.02;100.00
37610;BME280;23457;51.966;8.230;2023-11-18T06:13:49;101688.47;;;2.11;100.00
37610;BME280;23457;51.966;8.230;2023-11-18T06:16:23;101682.16;;;2.32;100.00
37610;BME280;23457;51.966;8.230;2023-11-18T06:18:55;101697.06;;;2.25;100.00
37610;BME280;23457;51.966;8.230;2023-11-18T06:21:24;101696.84;;;2.08;100.00
37610;BME280;23457;51.966;8.230;2023-11-18T06:23:51;101699.53;;;2.23;100.00
37610;BME280;23457;51.966;8.230;2023-11-18T06:26:18;101680.97;;;2.27;100.00
37610;BME280;23457;51.966;8.230;2023-11-18T06:28:47;101682.91;;;2.58;100.00
37610;BME280;23457;51.966;8.230;2023-11-18T06:31:14;101691.63;;;2.33;100.00
37610;BME280;23457;51.966;8.230;2023-11-18T06:33:42;101696.28;;;2.39;100.00
37610;BME280;23457;51.966;8.230;2023-11-18T06:38:46;101708.22;;;2.38;100.00
37610;BME280;23457;51.966;8.230;2023-11-18T06:41:13;101705.66;;;2.25;100.00
37610;BME280;23457;51.966;8.230;2023-11-18T06:43:43;101694.97;;;2.32;100.00
37610;BME280;23457;51.966;8.230;2023-11-18T06:46:30;101701.50;;;2.14;100.00
37610;BME280;23457;51.966;8.230;2023-11-18T06:49:02;101696.66;;;2.19;100.00
37610;BME280;23457;51.966;8.230;2023-11-18T06:51:32;101695.84;;;2.06;100.00
37610;BME280;23457;51.966;8.230;2023-11-18T06:54:02;101684.34;;;2.26;100.00
37610;BME280;23457;51.966;8.230;2023-11-18T06:56:37;101685.81;;;2.36;100.00
37610;BME280;23457;51.966;8.230;2023-11-18T06:59:05;101684.22;;;2.38;100.00
37610;BME280;23457;51.966;8.230;2023-11-18T07:01:34;101685.72;;;2.34;100.00
37610;BME280;23457;51.966;8.230;2023-11-18T07:04:01;101678.47;;;2.55;100.00
37610;BME280;23457;51.966;8.230;2023-11-18T07:06:28;101683.34;;;2.50;100.00
37610;BME280;23457;51.966;8.230;2023-11-18T07:08:55;101682.56;;;2.51;100.00
37610;BME280;23457;51.966;8.230;2023-11-18T07:11:26;101679.38;;;2.29;100.00
37610;BME280;23457;51.966;8.230;2023-11-18T07:13:54;101689.25;;;2.49;100.00
37610;BME280;23457;51.966;8.230;2023-11-18T07:16:26;101690.91;;;2.62;100.00
37610;BME280;23457;51.966;8.230;2023-11-18T07:18:53;101691.50;;;2.19;100.00
37610;BME280;23457;51.966;8.230;2023-11-18T07:21:19;101678.59;;;2.30;100.00
37610;BME280;23457;51.966;8.230;2023-11-18T07:23:46;101685.41;;;2.30;100.00
37610;BME280;23457;51.966;8.230;2023-11-18T07:26:13;101672.38;;;2.53;100.00
37610;BME280;23457;51.966;8.230;2023-11-18T07:28:41;101676.31;;;2.48;100.00
37610;BME280;23457;51.966;8.230;2023-11-18T07:31:08;101678.41;;;2.40;100.00
37610;BME280;23457;51.966;8.230;2023-11-18T07:33:35;101683.13;;;2.34;100.00
37610;BME280;23457;51.966;8.230;2023-11-18T07:36:02;101688.63;;;2.53;100.00
37610;BME280;23457;51.966;8.230;2023-11-18T07:38:32;101696.34;;;2.53;100.00
37610;BME280;23457;51.966;8.230;2023-11-18T07:41:01;101697.94;;;2.51;100.00
37610;BME280;23457;51.966;8.230;2023-11-18T07:43:29;101697.16;;;2.66;100.00
37610;BME280;23457;51.966;8.230;2023-11-18T07:45:57;101696.63;;;2.71;100.00
37610;BME280;23457;51.966;8.230;2023-11-18T07:48:24;101680.91;;;2.80;100.00
37610;BME280;23457;51.966;8.230;2023-11-18T07:50:50;101678.81;;;2.87;100.00
37610;BME280;23457;51.966;8.230;2023-11-18T07:53:17;101678.16;;;2.77;100.00
37610;BME280;23457;51.966;8.230;2023-11-18T07:55:44;101686.03;;;2.80;100.00
37610;BME280;23457;51.966;8.230;2023-11-18T07:58:11;101684.09;;;2.76;100.00
37610;BME280;23457;51.966;8.230;2023-11-18T08:00:41;101667.53;;;2.99;100.00
37610;BME280;23457;51.966;8.230;2023-11-18T08:03:09;101669.22;;;2.98;100.00
37610;BME280;23457;51.966;8.230;2023-11-18T08:05:44;101653.38;;;3.05;100.00
37610;BME280;23457;51.966;8.230;2023-11-18T08:08:12;101652.88;;;3.11;100.00
37610;BME280;23457;51.966;8.230;2023-11-18T08:10:40;101659.59;;;3.09;100.00
37610;BME280;23457;51.966;8.230;2023-11-18T08:13:09;101658.88;;;3.11;100.00
37610;BME280;23457;51.966;8.230;2023-11-18T08:15:41;101651.91;;;3.23;100.00
37610;BME280;23457;51.966;8.230;2023-11-18T08:18:08;101657.66;;;3.19;100.00
37610;BME280;23457;51.966;8.230;2023-11-18T08:20:39;101661.94;;;3.34;100.00
37610;BME280;23457;51.966;8.230;2023-11-18T08:23:05;101652.06;;;3.40;100.00
37610;BME280;23457;51.966;8.230;2023-11-18T08:25:33;101651.00;;;3.51;100.00
37610;BME280;23457;51.966;8.230;2023-11-18T08:28:03;101657.28;;;3.56;100.00
37610;BME280;23457;51.966;8.230;2023-11-18T08:30:31;101648.25;;;3.48;100.00
37610;BME280;23457;51.966;8.230;2023-11-18T08:33:00;101657.44;;;3.44;100.00
37610;BME280;23457;51.966;8.230;2023-11-18T08:35:31;101667.50;;;3.54;100.00
37610;BME280;23457;51.966;8.230;2023-11-18T08:37:58;101674.75;;;3.62;100.00
37610;BME280;23457;51.966;8.230;2023-11-18T08:40:27;101674.78;;;3.76;100.00
37610;BME280;23457;51.966;8.230;2023-11-18T08:42:54;101669.63;;;3.76;100.00
37610;BME280;23457;51.966;8.230;2023-11-18T08:45:24;101670.88;;;3.83;100.00
37610;BME280;23457;51.966;8.230;2023-11-18T08:47:56;101672.47;;;3.95;100.00
37610;BME280;23457;51.966;8.230;2023-11-18T08:50:24;101682.94;;;3.99;100.00
37610;BME280;23457;51.966;8.230;2023-11-18T08:52:52;101678.47;;;4.11;100.00
37610;BME280;23457;51.966;8.230;2023-11-18T08:55:27;101668.72;;;4.20;100.00
37610;BME280;23457;51.966;8.230;2023-11-18T08:58:11;101675.81;;;4.09;100.00
37610;BME280;23457;51.966;8.230;2023-11-18T09:00:50;101670.75;;;4.25;100.00
37610;BME280;23457;51.966;8.230;2023-11-18T09:03:31;101665.50;;;4.24;100.00
37610;BME280;23457;51.966;8.230;2023-11-18T09:06:06;101654.13;;;4.35;100.00
37610;BME280;23457;51.966;8.230;2023-11-18T09:08:48;101635.00;;;4.46;100.00
37610;BME280;23457;51.966;8.230;2023-11-18T09:11:23;101627.66;;;4.52;100.00
37610;BME280;23457;51.966;8.230;2023-11-18T09:13:53;101623.91;;;4.47;100.00
37610;BME280;23457;51.966;8.230;2023-11-18T09:16:21;101627.06;;;4.42;100.00
37610;BME280;23457;51.966;8.230;2023-11-18T09:18:56;101629.28;;;4.66;100.00
37610;BME280;23457;51.966;8.230;2023-11-18T09:21:28;101630.97;;;4.66;100.00
37610;BME280;23457;51.966;8.230;2023-11-18T09:23:56;101627.50;;;4.82;100.00
37610;BME280;23457;51.966;8.230;2023-11-18T09:26:23;101620.34;;;4.76;100.00
37610;BME280;23457;51.966;8.230;2023-11-18T09:28:52;101621.09;;;4.90;100.00
37610;BME280;23457;51.966;8.230;2023-11-18T09:31:20;101616.50;;;4.84;100.00
37610;BME280;23457;51.966;8.230;2023-11-18T09:33:48;101605.88;;;4.78;100.00
37610;BME280;23457;51.966;8.230;2023-11-18T09:36:24;101606.06;;;4.81;100.00
37610;BME280;23457;51.966;8.230;2023-11-18T09:38:51;101602.56;;;4.97;100.00
37610;BME280;23457;51.966;8.230;2023-11-18T09:41:22;101591.47;;;4.98;100.00
37610;BME280;23457;51.966;8.230;2023-11-18T09:43:51;101584.63;;;4.98;100.00
37610;BME280;23457;51.966;8.230;2023-11-18T09:46:25;101580.19;;;5.12;100.00
37610;BME280;23457;51.966;8.230;2023-11-18T09:51:57;101571.22;;;5.22;100.00
37610;BME280;23457;51.966;8.230;2023-11-18T09:57:16;101557.41;;;5.37;100.00
37610;BME280;23457;51.966;8.230;2023-11-18T10:00:02;101561.22;;;5.44;100.00
37610;BME280;23457;51.966;8.230;2023-11-18T10:02:39;101561.56;;;5.52;100.00
37610;BME280;23457;51.966;8.230;2023-11-18T10:05:12;101565.41;;;5.60;100.00
37610;BME280;23457;51.966;8.230;2023-11-18T10:07:41;101550.00;;;5.61;100.00
37610;BME280;23457;51.966;8.230;2023-11-18T10:10:08;101558.06;;;5.67;100.00
37610;BME280;23457;51.966;8.230;2023-11-18T10:12:46;101562.09;;;5.62;100.00
37610;BME280;23457;51.966;8.230;2023-11-18T10:15:21;101558.25;;;5.72;100.00
37610;BME280;23457;51.966;8.230;2023-11-18T10:17:52;101552.63;;;5.45;100.00
37610;BME280;23457;51.966;8.230;2023-11-18T10:23:15;101554.88;;;5.73;100.00
37610;BME280;23457;51.966;8.230;2023-11-18T10:25:54;101556.56;;;6.06;100.00
37610;BME280;23457;51.966;8.230;2023-11-18T10:28:30;101539.28;;;6.05;100.00
37610;BME280;23457;51.966;8.230;2023-11-18T10:31:03;101535.25;;;5.93;100.00
37610;BME280;23457;51.966;8.230;2023-11-18T10:33:35;101537.44;;;6.03;100.00
37610;BME280;23457;51.966;8.230;2023-11-18T10:36:04;101534.28;;;5.91;100.00
37610;BME280;23457;51.966;8.230;2023-11-18T10:38:32;101539.25;;;6.23;100.00
37610;BME280;23457;51.966;8.230;2023-11-18T10:41:03;101536.88;;;6.45;100.00
37610;BME280;23457;51.966;8.230;2023-11-18T10:43:32;101515.50;;;6.30;100.00
37610;BME280;23457;51.966;8.230;2023-11-18T10:46:06;101509.06;;;6.40;100.00
37610;BME280;23457;51.966;8.230;2023-11-18T10:48:47;101505.94;;;6.66;100.00
37610;BME280;23457;51.966;8.230;2023-11-18T10:51:16;101504.31;;;6.68;100.00
37610;BME280;23457;51.966;8.230;2023-11-18T10:53:51;101497.56;;;6.53;100.00
37610;BME280;23457;51.966;8.230;2023-11-18T10:56:25;101492.88;;;6.63;100.00
37610;BME280;23457;51.966;8.230;2023-11-18T10:58:58;101489.69;;;6.69;100.00
37610;BME280;23457;51.966;8.230;2023-11-18T11:01:35;101489.34;;;6.80;100.00
37610;BME280;23457;51.966;8.230;2023-11-18T11:04:09;101487.44;;;6.76;100.00
37610;BME280;23457;51.966;8.230;2023-11-18T11:06:47;101479.31;;;6.88;100.00
37610;BME280;23457;51.966;8.230;2023-11-18T11:09:24;101481.31;;;6.94;100.00
37610;BME280;23457;51.966;8.230;2023-11-18T11:11:56;101475.50;;;6.99;100.00
37610;BME280;23457;51.966;8.230;2023-11-18T11:14:26;101468.69;;;7.01;100.00
37610;BME280;23457;51.966;8.230;2023-11-18T11:17:06;101454.50;;;6.92;100.00
37610;BME280;23457;51.966;8.230;2023-11-18T11:20:05;101466.31;;;7.06;100.00
37610;BME280;23457;51.966;8.230;2023-11-18T11:22:56;101454.38;;;6.89;100.00
37610;BME280;23457;51.966;8.230;2023-11-18T11:25:43;101455.56;;;6.97;100.00
37610;BME280;23457;51.966;8.230;2023-11-18T11:28:22;101453.00;;;7.17;100.00
37610;BME280;23457;51.966;8.230;2023-11-18T11:33:36;101431.00;;;7.27;100.00
37610;BME280;23457;51.966;8.230;2023-11-18T11:36:18;101431.13;;;6.89;100.00
37610;BME280;23457;51.966;8.230;2023-11-18T11:38:52;101437.31;;;7.13;100.00
37610;BME280;23457;51.966;8.230;2023-11-18T11:41:23;101441.97;;;7.01;100.00
37610;BME280;23457;51.966;8.230;2023-11-18T11:43:54;101453.19;;;7.01;100.00
37610;BME280;23457;51.966;8.230;2023-11-18T11:46:22;101443.72;;;7.02;100.00
37610;BME280;23457;51.966;8.230;2023-11-18T11:48:51;101442.75;;;7.19;100.00
37610;BME280;23457;51.966;8.230;2023-11-18T11:51:24;101435.47;;;7.10;100.00
37610;BME280;23457;51.966;8.230;2023-11-18T11:54:18;101426.47;;;7.22;100.00
37610;BME280;23457;51.966;8.230;2023-11-18T11:56:49;101425.63;;;7.23;100.00
37610;BME280;23457;51.966;8.230;2023-11-18T11:59:16;101424.31;;;7.32;100.00
37610;BME280;23457;51.966;8.230;2023-11-18T12:01:43;101415.84;;;7.36;100.00
37610;BME280;23457;51.966;8.230;2023-11-18T12:04:22;101417.34;;;7.09;100.00
37610;BME280;23457;51.966;8.230;2023-11-18T12:06:55;101404.38;;;7.30;100.00
37610;BME280;23457;51.966;8.230;2023-11-18T12:09:38;101408.03;;;7.35;100.00
37610;BME280;23457;51.966;8.230;2023-11-18T12:12:06;101392.16;;;7.26;100.00
37610;BME280;23457;51.966;8.230;2023-11-18T12:14:52;101395.97;;;7.35;100.00
37610;BME280;23457;51.966;8.230;2023-11-18T12:17:24;101401.22;;;7.37;100.00
37610;BME280;23457;51.966;8.230;2023-11-18T12:19:55;101401.53;;;7.44;100.00
37610;BME280;23457;51.966;8.230;2023-11-18T12:23:02;101401.59;;;7.25;100.00
37610;BME280;23457;51.966;8.230;2023-11-18T12:25:31;101395.53;;;7.45;100.00
37610;BME280;23457;51.966;8.230;2023-11-18T12:28:07;101380.59;;;7.38;100.00
37610;BME280;23457;51.966;8.230;2023-11-18T12:33:04;101387.47;;;7.38;100.00
37610;BME280;23457;51.966;8.230;2023-11-18T12:41:01;101384.03;;;7.60;100.00
37610;BME280;23457;51.966;8.230;2023-11-18T12:43:47;101391.41;;;7.50;100.00
37610;BME280;23457;51.966;8.230;2023-11-18T12:46:47;101365.91;;;7.82;100.00
37610;BME280;23457;51.966;8.230;2023-11-18T12:49:17;101353.47;;;7.96;100.00
37610;BME280;23457;51.966;8.230;2023-11-18T12:51:51;101336.06;;;7.91;100.00
37610;BME280;23457;51.966;8.230;2023-11-18T12:54:19;101339.72;;;7.97;100.00
37610;BME280;23457;51.966;8.230;2023-11-18T12:56:51;101328.72;;;8.27;100.00
37610;BME280;23457;51.966;8.230;2023-11-18T12:59:20;101313.50;;;8.35;100.00
37610;BME280;23457;51.966;8.230;2023-11-18T13:01:48;101300.50;;;8.11;100.00
37610;BME280;23457;51.966;8.230;2023-11-18T13:04:20;101298.03;;;8.14;100.00
37610;BME280;23457;51.966;8.230;2023-11-18T13:06:48;101293.97;;;8.21;100.00
37610;BME280;23457;51.966;8.230;2023-11-18T13:09:16;101277.56;;;8.20;100.00
37610;BME280;23457;51.966;8.230;2023-11-18T13:11:56;101288.88;;;8.24;100.00
37610;BME280;23457;51.966;8.230;2023-11-18T13:14:27;101294.22;;;8.28;100.00
37610;BME280;23457;51.966;8.230;2023-11-18T13:16:55;101292.16;;;8.18;100.00
37610;BME280;23457;51.966;8.230;2023-11-18T13:19:26;101289.59;;;7.95;100.00
37610;BME280;23457;51.966;8.230;2023-11-18T13:22:01;101290.09;;;7.84;100.00
37610;BME280;23457;51.966;8.230;2023-11-18T13:24:30;101282.38;;;8.11;100.00
37610;BME280;23457;51.966;8.230;2023-11-18T13:27:00;101282.38;;;8.11;100.00
37610;BME280;23457;51.966;8.230;2023-11-18T13:29:31;101283.50;;;8.18;100.00